Time;durP1;ratioP1;P1;durP2;ratioP2;P2;SDS_P1;SDS_P2;PMS_P1;PMS_P2;Temp;Humidity;BMP_temperature;BMP_pressure;BME280_temperature;BME280_humidity;BME280_pressure;Samples;Min_cycle;Max_cycle;Signal;HPM_P1;HPM_P2
2023/02/04 00:01:28;;;;;;;31.95;18.32;;;;;;;1.64;94.71;99621.72;1781615;80;20182;-83
2023/02/04 00:04:35;;;;;;;26.50;15.83;;;;;;;1.93;94.67;99615.09;1781553;80;21164;-80
2023/02/04 00:07:40;;;;;;;25.82;15.65;;;;;;;1.95;93.57;99614.95;1780916;80;21211;-79
2023/02/04 00:10:46;;;;;;;25.02;14.85;;;;;;;1.75;93.66;99620.29;1781609;80;21772;-84
2023/02/04 00:13:51;;;;;;;25.08;15.43;;;;;;;1.83;94.15;99607.95;1781676;80;21732;-79
2023/02/04 00:16:51;;;;;;;27.87;15.43;;;;;;;1.67;93.50;99607.98;1780252;80;21208;-80
2023/02/04 00:19:50;;;;;;;23.42;14.47;;;;;;;1.57;94.47;99606.25;1781395;80;21176;-84
2023/02/04 00:22:56;;;;;;;22.98;14.18;;;;;;;1.71;94.28;99604.52;1783136;80;21518;-80
2023/02/04 00:26:02;;;;;;;22.05;12.35;;;;;;;1.56;94.60;99600.00;1783174;80;21164;-80
2023/02/04 00:29:08;;;;;;;20.37;12.15;;;;;;;1.74;93.56;99600.18;1784051;80;21160;-84
2023/02/04 00:32:15;;;;;;;17.42;10.18;;;;;;;1.60;94.06;99600.56;1783317;80;21198;-84
2023/02/04 00:35:19;;;;;;;17.02;11.55;;;;;;;1.61;93.68;99598.25;1783616;80;21200;-80
2023/02/04 00:38:26;;;;;;;15.15;9.83;;;;;;;1.55;93.93;99603.66;1783988;80;21211;-84
2023/02/04 00:41:32;;;;;;;12.25;7.85;;;;;;;1.49;94.39;99601.52;1783987;80;21191;-85
2023/02/04 00:44:38;;;;;;;14.93;9.95;;;;;;;1.51;94.84;99598.22;1784201;80;21148;-83
2023/02/04 00:47:43;;;;;;;15.53;9.80;;;;;;;1.43;94.83;99592.64;1783425;80;21251;-79
2023/02/04 00:50:51;;;;;;;18.02;11.20;;;;;;;1.48;94.60;99585.84;1784128;80;21796;-86
2023/02/04 00:54:00;;;;;;;16.47;10.30;;;;;;;1.54;94.42;99593.38;1784357;80;21725;-80
2023/02/04 00:57:06;;;;;;;16.67;10.00;;;;;;;1.57;94.36;99583.33;1782928;80;21789;-80
2023/02/04 01:13:57;;;;;;;15.05;9.90;;;;;;;1.63;94.95;99574.19;1878020;76;22216;-79
2023/02/04 01:21:13;;;;;;;15.78;10.32;;;;;;;1.44;95.09;99575.48;1782632;80;21208;-86
2023/02/04 01:24:19;;;;;;;14.23;9.48;;;;;;;1.44;94.90;99581.72;1749905;82;21173;-81
2023/02/04 01:27:43;;;;;;;19.77;12.63;;;;;;;1.38;95.27;99573.34;1749820;82;21176;-79
2023/02/04 01:30:49;;;;;;;23.02;13.58;;;;;;;1.48;95.37;99573.72;1750081;82;21698;-79
2023/02/04 01:33:55;;;;;;;24.27;14.60;;;;;;;1.47;95.45;99577.91;1748829;82;21201;-80
2023/02/04 01:37:00;;;;;;;26.97;15.43;;;;;;;1.45;95.67;99576.67;1749818;82;21231;-81
2023/02/04 01:40:05;;;;;;;23.95;15.08;;;;;;;1.37;95.97;99577.88;1750049;82;21213;-85
2023/02/04 01:43:11;;;;;;;35.30;16.27;;;;;;;1.73;95.75;99573.72;1748912;81;21726;-85
2023/02/04 01:46:18;;;;;;;24.35;13.90;;;;;;;1.54;95.84;99575.02;1750012;82;21216;-80
2023/02/04 01:49:23;;;;;;;27.65;16.80;;;;;;;1.57;96.37;99567.16;1750104;82;21208;-82
2023/02/04 01:52:29;;;;;;;28.27;16.48;;;;;;;1.56;96.33;99571.70;1749553;82;21213;-85
2023/02/04 01:55:37;;;;;;;24.82;14.95;;;;;;;1.55;96.31;99575.36;1749740;82;21709;-84
2023/02/04 01:58:44;;;;;;;24.12;14.47;;;;;;;1.50;96.65;99577.12;1728672;82;21275;-85
2023/02/04 02:01:53;;;;;;;35.05;17.42;;;;;;;1.49;96.52;99578.11;1727781;82;21195;-84
2023/02/04 02:04:58;;;;;;;33.95;17.50;;;;;;;1.50;96.70;99578.47;1750028;82;21773;-84
2023/02/04 02:08:07;;;;;;;32.93;18.07;;;;;;;1.71;96.57;99581.61;1748576;82;21209;-84
2023/02/04 02:11:12;;;;;;;32.67;18.15;;;;;;;1.93;95.41;99576.45;1748388;82;21185;-80
2023/02/04 02:14:19;;;;;;;28.55;17.07;;;;;;;1.94;94.72;99577.69;1741283;81;21193;-85
2023/02/04 02:17:26;;;;;;;35.78;19.70;;;;;;;1.77;94.86;99581.05;1741549;82;21228;-86
2023/02/04 02:20:32;;;;;;;36.33;21.02;;;;;;;1.66;96.55;99576.63;1736269;82;21774;-85
2023/02/04 02:24:00;;;;;;;30.95;18.87;;;;;;;1.94;96.41;99576.84;1745557;82;21247;-81
2023/02/04 02:27:08;;;;;;;24.07;14.80;;;;;;;1.77;96.65;99576.50;1775830;81;21197;-86
2023/02/04 02:30:16;;;;;;;36.60;20.37;;;;;;;1.87;96.94;99574.33;1745140;82;21173;-86
2023/02/04 02:33:25;;;;;;;58.20;27.67;;;;;;;1.96;96.66;99578.89;1743963;82;21216;-86
2023/02/04 02:36:30;;;;;;;54.53;23.18;;;;;;;2.14;96.64;99583.95;1724981;82;21141;-85
2023/02/04 02:39:36;;;;;;;38.35;21.40;;;;;;;2.28;95.59;99575.45;1745296;82;21177;-80
2023/02/04 02:42:42;;;;;;;34.20;20.02;;;;;;;2.29;95.60;99574.45;1744902;82;21205;-85
2023/02/04 02:45:47;;;;;;;28.52;17.82;;;;;;;2.45;95.34;99583.84;1747295;82;21536;-80
2023/02/04 02:48:56;;;;;;;28.80;17.82;;;;;;;2.59;94.16;99580.72;1747468;82;21153;-85
2023/02/04 02:52:04;;;;;;;28.30;15.30;;;;;;;2.54;95.10;99582.96;1747204;82;21750;-86
2023/02/04 02:55:09;;;;;;;27.37;15.65;;;;;;;2.52;95.38;99583.62;1746258;82;21174;-84
2023/02/04 02:58:36;;;;;;;21.52;13.20;;;;;;;2.56;95.88;99576.44;1742702;82;21221;-84
2023/02/04 03:01:42;;;;;;;17.45;10.93;;;;;;;2.65;95.46;99581.48;1739194;82;21580;-80
2023/02/04 03:04:52;;;;;;;8.90;5.60;;;;;;;2.94;94.31;99579.23;1737900;82;21197;-80
2023/02/04 03:07:58;;;;;;;4.85;4.35;;;;;;;2.75;93.44;99580.13;1738374;82;21220;-86
2023/02/04 03:11:03;;;;;;;5.75;4.10;;;;;;;2.66;91.77;99577.78;1738781;82;21165;-82
2023/02/04 03:14:11;;;;;;;5.25;3.95;;;;;;;2.39;91.90;99583.05;1741491;81;21623;-82
2023/02/04 03:17:17;;;;;;;5.47;3.72;;;;;;;2.22;92.33;99585.47;1738103;82;21195;-79
2023/02/04 03:20:23;;;;;;;3.12;2.83;;;;;;;2.12;91.94;99588.66;1739485;82;21168;-79
2023/02/04 03:23:29;;;;;;;3.50;2.72;;;;;;;1.78;92.61;99590.33;1738227;82;21784;-85
2023/02/04 03:26:35;;;;;;;3.33;2.77;;;;;;;1.73;92.59;99597.98;1739465;82;21303;-83
2023/02/04 03:29:36;;;;;;;3.60;3.20;;;;;;;1.60;92.83;99603.26;1715885;82;21523;-79
2023/02/04 03:32:43;;;;;;;3.33;2.90;;;;;;;1.54;92.85;99600.62;1719738;83;21224;-80
2023/02/04 03:35:50;;;;;;;4.53;3.47;;;;;;;1.70;92.31;99596.94;1720246;83;21790;-80
2023/02/04 03:38:57;;;;;;;5.20;3.80;;;;;;;1.61;92.13;99600.45;1720172;83;21516;-80
2023/02/04 03:42:02;;;;;;;4.42;3.58;;;;;;;1.59;92.01;99602.91;1733296;83;21245;-86
2023/02/04 03:45:08;;;;;;;4.37;3.60;;;;;;;1.57;91.79;99600.36;1732724;83;21232;-81
2023/02/04 03:48:14;;;;;;;5.25;3.52;;;;;;;1.49;91.55;99600.17;1732772;83;21205;-81
2023/02/04 03:51:20;;;;;;;5.50;3.80;;;;;;;1.49;91.33;99596.98;1733947;83;21168;-87
2023/02/04 03:54:26;;;;;;;4.15;3.30;;;;;;;1.47;91.34;99611.59;1733505;83;21838;-87
2023/02/04 03:57:32;;;;;;;8.43;3.98;;;;;;;1.39;91.28;99610.06;1728831;83;21225;-81
2023/02/04 04:00:39;;;;;;;4.20;3.80;;;;;;;1.35;91.63;99608.12;1769974;81;21193;-87
2023/02/04 04:03:44;;;;;;;4.60;3.70;;;;;;;1.35;91.32;99620.25;1770773;81;21212;-87
2023/02/04 04:06:50;;;;;;;4.45;3.75;;;;;;;1.36;91.29;99608.97;1770714;81;21200;-80
2023/02/04 04:09:56;;;;;;;3.60;3.30;;;;;;;1.27;90.34;99616.90;1770678;81;21193;-80
2023/02/04 04:13:03;;;;;;;4.90;4.15;;;;;;;1.39;90.32;99619.00;1770164;81;21168;-87
2023/02/04 04:16:09;;;;;;;7.15;5.10;;;;;;;1.65;89.55;99624.80;1769839;79;21161;-85
2023/02/04 04:19:14;;;;;;;5.60;4.75;;;;;;;1.65;88.92;99628.84;1744251;82;21722;-84
2023/02/04 04:22:20;;;;;;;8.53;5.55;;;;;;;1.36;88.87;99621.95;1742874;82;21240;-86
2023/02/04 04:25:26;;;;;;;7.37;5.58;;;;;;;1.23;89.42;99628.92;1743270;82;21211;-85
2023/02/04 04:28:32;;;;;;;6.85;5.28;;;;;;;1.19;89.68;99629.33;1756839;81;21322;-86
2023/02/04 04:31:37;;;;;;;7.55;5.05;;;;;;;1.21;89.58;99637.62;1769673;81;21169;-86
2023/02/04 04:34:43;;;;;;;6.50;5.40;;;;;;;1.76;87.18;99646.26;1771528;81;21201;-80
2023/02/04 04:37:49;;;;;;;6.53;5.67;;;;;;;1.68;86.80;99651.97;1771616;81;21220;-86
2023/02/04 04:40:55;;;;;;;7.58;5.70;;;;;;;1.67;86.59;99648.92;1771524;81;21169;-87
2023/02/04 04:44:00;;;;;;;8.23;5.90;;;;;;;1.82;85.61;99642.66;1770032;77;21188;-87
2023/02/04 04:47:06;;;;;;;10.63;7.62;;;;;;;1.38;86.80;99645.59;1770032;81;21316;-87
2023/02/04 04:50:12;;;;;;;10.45;7.83;;;;;;;1.77;85.89;99650.66;1771555;81;21157;-85
2023/02/04 04:53:18;;;;;;;10.05;8.13;;;;;;;1.58;85.84;99651.92;1770464;81;21185;-85
2023/02/04 04:56:23;;;;;;;12.15;8.60;;;;;;;1.47;85.95;99653.38;1770380;79;21180;-80
2023/02/04 04:59:29;;;;;;;13.05;9.90;;;;;;;1.64;85.74;99652.72;1771501;81;21161;-80
2023/02/04 05:02:35;;;;;;;12.63;9.13;;;;;;;1.61;86.12;99658.41;1770045;81;21200;-81
2023/02/04 05:05:40;;;;;;;13.28;8.53;;;;;;;1.62;86.22;99670.04;1770207;81;21165;-85
2023/02/04 05:08:45;;;;;;;11.25;9.13;;;;;;;1.70;85.69;99666.19;1770113;81;21588;-85
2023/02/04 05:11:52;;;;;;;14.35;10.43;;;;;;;1.53;85.82;99675.73;1770131;81;21216;-79
2023/02/04 05:14:58;;;;;;;12.50;9.43;;;;;;;1.18;87.11;99675.63;1770031;81;21812;-85
2023/02/04 05:18:03;;;;;;;16.17;11.08;;;;;;;1.40;86.82;99681.83;1781775;79;21176;-87
2023/02/04 05:21:09;;;;;;;17.87;11.93;;;;;;;1.32;86.71;99672.20;1807637;79;21748;-85
2023/02/04 05:24:15;;;;;;;11.73;9.40;;;;;;;1.32;86.74;99682.98;1809409;79;21766;-85
2023/02/04 05:27:21;;;;;;;14.23;10.28;;;;;;;1.31;86.83;99687.52;1808057;79;21211;-86
2023/02/04 05:30:27;;;;;;;15.88;10.40;;;;;;;1.26;87.10;99685.72;1807884;79;21199;-80
2023/02/04 05:33:34;;;;;;;15.15;10.08;;;;;;;1.25;86.89;99693.45;1807834;79;21185;-86
2023/02/04 05:36:39;;;;;;;14.38;10.60;;;;;;;1.25;86.69;99692.95;1808071;79;21169;-80
2023/02/04 05:39:44;;;;;;;12.60;9.65;;;;;;;1.18;86.51;99699.87;1807781;79;21164;-79
2023/02/04 05:42:50;;;;;;;13.32;9.13;;;;;;;1.22;86.75;99701.78;1808540;79;21240;-86
2023/02/04 05:45:58;;;;;;;16.27;10.38;;;;;;;1.29;86.67;99705.67;1809149;79;21196;-80
2023/02/04 05:49:06;;;;;;;16.60;9.95;;;;;;;1.37;86.08;99705.88;1811133;79;21136;-86
2023/02/04 05:52:12;;;;;;;12.68;9.53;;;;;;;1.51;85.64;99710.08;1809884;79;21622;-88
2023/02/04 05:55:18;;;;;;;12.68;9.10;;;;;;;1.67;84.92;99717.66;1810597;79;21176;-86
2023/02/04 05:58:24;;;;;;;14.53;10.53;;;;;;;1.69;84.31;99728.66;1808415;79;21741;-86
2023/02/04 06:01:30;;;;;;;17.12;11.73;;;;;;;1.69;84.24;99731.36;1809238;79;21173;-87
2023/02/04 06:04:36;;;;;;;16.85;11.12;;;;;;;1.61;84.29;99737.94;1809329;79;21137;-86
2023/02/04 06:07:43;;;;;;;15.55;11.33;;;;;;;1.68;84.20;99744.48;1808114;79;21196;-86
2023/02/04 06:10:48;;;;;;;17.90;11.08;;;;;;;1.78;84.03;99747.23;1809356;79;21181;-79
2023/02/04 06:13:55;;;;;;;18.50;11.68;;;;;;;1.67;84.56;99738.73;1809357;79;21160;-86
2023/02/04 06:17:00;;;;;;;16.42;11.93;;;;;;;1.80;84.65;99742.58;1808959;79;21211;-86
2023/02/04 06:20:05;;;;;;;28.98;16.67;;;;;;;1.74;84.71;99743.97;1802995;79;21189;-86
2023/02/04 06:23:12;;;;;;;37.73;20.00;;;;;;;1.70;85.41;99744.38;1802550;79;21180;-86
2023/02/04 06:26:17;;;;;;;31.55;18.00;;;;;;;1.82;85.62;99749.17;1803692;79;21204;-78
2023/02/04 06:29:23;;;;;;;34.50;21.15;;;;;;;1.99;85.25;99752.10;1803948;79;21216;-80
2023/02/04 06:32:28;;;;;;;36.08;21.02;;;;;;;1.92;85.66;99747.38;1803374;79;21252;-79
2023/02/04 06:35:28;;;;;;;27.17;16.33;;;;;;;2.14;85.47;99751.23;1803949;79;21150;-80
2023/02/04 06:38:34;;;;;;;37.50;21.40;;;;;;;2.67;83.28;99750.95;1802295;79;21231;-86
2023/02/04 06:41:40;;;;;;;38.55;23.60;;;;;;;2.34;83.90;99762.09;1803543;79;21722;-86
2023/02/04 06:44:46;;;;;;;32.38;20.52;;;;;;;2.49;84.09;99768.34;1803871;79;21165;-81
2023/02/04 06:47:52;;;;;;;43.50;22.77;;;;;;;2.56;83.36;99764.09;1802704;79;21184;-87
2023/02/04 06:50:51;;;;;;;35.05;22.22;;;;;;;2.87;82.01;99762.66;1802405;79;21160;-79
2023/02/04 06:53:46;;;;;;;37.45;21.70;;;;;;;2.96;81.46;99758.23;1803877;79;21702;-87
2023/02/04 06:56:52;;;;;;;37.20;22.90;;;;;;;3.21;80.63;99765.80;1803735;79;21216;-87
2023/02/04 06:59:59;;;;;;;36.05;22.87;;;;;;;2.80;81.98;99758.30;1803606;79;21153;-78
2023/02/04 07:03:06;;;;;;;38.88;22.95;;;;;;;2.68;81.90;99762.61;1803335;79;21185;-79
2023/02/04 07:06:14;;;;;;;35.48;23.02;;;;;;;2.78;82.10;99774.31;1802375;79;21157;-79
2023/02/04 07:09:20;;;;;;;38.38;21.42;;;;;;;3.00;81.21;99781.28;1802222;79;21169;-79
2023/02/04 07:12:25;;;;;;;38.02;23.45;;;;;;;3.13;80.57;99775.61;1803151;79;21213;-79
2023/02/04 07:15:30;;;;;;;39.58;23.10;;;;;;;3.16;80.64;99776.69;1803549;79;21746;-86
2023/02/04 07:18:37;;;;;;;37.55;23.22;;;;;;;3.29;80.26;99784.88;1802725;79;21196;-77
2023/02/04 07:21:42;;;;;;;28.42;19.52;;;;;;;3.89;78.25;99782.42;1808363;79;21187;-77
2023/02/04 07:24:48;;;;;;;31.00;20.02;;;;;;;3.85;77.77;99786.77;1810680;79;21207;-77
2023/02/04 07:27:55;;;;;;;30.60;20.48;;;;;;;4.13;76.89;99783.27;1811223;78;21196;-77
2023/02/04 07:31:01;;;;;;;30.00;19.62;;;;;;;4.11;75.62;99786.14;1812026;79;21176;-86
2023/02/04 07:34:07;;;;;;;30.88;19.42;;;;;;;4.26;75.45;99779.73;1809894;78;21228;-85
2023/02/04 07:37:14;;;;;;;31.05;19.10;;;;;;;4.33;74.12;99796.61;1810291;79;21220;-76
2023/02/04 07:40:20;;;;;;;32.85;20.15;;;;;;;4.32;73.91;99800.30;1810934;79;21133;-84
2023/02/04 07:43:27;;;;;;;29.40;19.32;;;;;;;4.03;75.07;99810.37;1809696;79;21190;-86
2023/02/04 07:46:32;;;;;;;29.60;20.88;;;;;;;4.07;75.11;99807.73;1811116;79;21195;-86
2023/02/04 07:49:38;;;;;;;30.25;20.92;;;;;;;4.00;74.69;99808.83;1809994;79;21538;-77
2023/02/04 07:52:43;;;;;;;26.68;18.00;;;;;;;3.94;74.48;99809.39;1810155;79;21828;-84
2023/02/04 07:55:50;;;;;;;25.52;16.42;;;;;;;3.78;75.05;99811.86;1810688;79;21169;-81
2023/02/04 07:58:55;;;;;;;24.18;16.30;;;;;;;4.06;73.96;99818.20;1809726;79;21786;-82
2023/02/04 08:02:02;;;;;;;23.30;16.25;;;;;;;4.13;73.36;99815.25;1799273;79;21181;-78
2023/02/04 08:05:08;;;;;;;24.65;16.20;;;;;;;3.84;73.69;99820.23;1778016;80;21236;-82
2023/02/04 08:08:14;;;;;;;24.87;17.50;;;;;;;3.67;73.85;99814.23;1777419;80;21235;-78
2023/02/04 08:11:19;;;;;;;25.00;15.10;;;;;;;3.81;74.03;99819.66;1778644;80;21523;-78
2023/02/04 08:14:24;;;;;;;24.32;15.85;;;;;;;3.66;74.55;99818.41;1778551;80;21141;-77
2023/02/04 08:17:30;;;;;;;24.10;13.58;;;;;;;3.73;74.85;99825.82;1777946;80;21484;-77
2023/02/04 08:20:35;;;;;;;19.45;13.30;;;;;;;4.02;73.19;99817.64;1778317;80;21820;-82
2023/02/04 08:23:42;;;;;;;18.40;13.58;;;;;;;3.33;74.65;99828.67;1778610;80;21547;-81
2023/02/04 08:26:48;;;;;;;21.80;15.20;;;;;;;3.59;74.46;99825.76;1778672;80;21793;-81
2023/02/04 08:29:54;;;;;;;19.82;14.35;;;;;;;3.83;73.69;99829.36;1776997;80;21169;-82
2023/02/04 08:33:00;;;;;;;23.22;13.38;;;;;;;3.78;73.85;99830.30;1777174;80;21208;-83
2023/02/04 08:36:06;;;;;;;21.68;13.03;;;;;;;3.74;74.13;99838.34;1776820;80;21188;-79
2023/02/04 08:39:13;;;;;;;17.80;11.97;;;;;;;3.80;74.04;99845.02;1778804;80;21180;-82
2023/02/04 08:42:17;;;;;;;17.30;12.37;;;;;;;3.92;74.17;99845.73;1778661;80;21220;-79
2023/02/04 08:45:23;;;;;;;15.48;11.35;;;;;;;4.06;73.26;99853.39;1778574;80;21228;-79
2023/02/04 08:48:30;;;;;;;13.68;10.10;;;;;;;4.03;73.21;99841.50;1777125;80;21184;-79
2023/02/04 08:51:36;;;;;;;12.35;9.10;;;;;;;4.37;71.64;99841.81;1778490;80;21274;-78
2023/02/04 08:54:42;;;;;;;15.15;8.93;;;;;;;4.28;70.87;99837.28;1778610;80;21232;-80
2023/02/04 08:57:48;;;;;;;12.58;9.55;;;;;;;4.73;68.46;99837.39;1777150;80;21235;-83
2023/02/04 09:00:53;;;;;;;14.23;11.48;;;;;;;4.79;68.18;99829.16;1777178;80;21173;-82
2023/02/04 09:03:59;;;;;;;10.93;7.87;;;;;;;4.72;68.96;99821.30;1778470;80;21773;-79
2023/02/04 09:07:06;;;;;;;9.68;7.78;;;;;;;4.55;67.94;99818.87;1778182;80;21220;-82
2023/02/04 09:10:13;;;;;;;10.98;7.97;;;;;;;4.56;68.41;99817.86;1777410;80;21223;-81
2023/02/04 09:13:18;;;;;;;12.05;7.75;;;;;;;4.60;68.00;99823.34;1777551;80;21209;-81
2023/02/04 09:16:24;;;;;;;10.55;8.38;;;;;;;4.35;67.95;99831.14;1778512;80;21161;-77
2023/02/04 09:19:29;;;;;;;11.15;8.98;;;;;;;4.49;67.89;99826.25;1778063;80;21738;-82
2023/02/04 09:22:36;;;;;;;12.30;9.70;;;;;;;4.53;68.07;99833.08;1777597;80;21216;-81
2023/02/04 09:25:41;;;;;;;9.40;6.50;;;;;;;4.69;67.75;99831.92;1778644;80;21186;-77
2023/02/04 09:28:48;;;;;;;10.15;6.95;;;;;;;4.41;67.38;99833.75;1778828;80;21142;-77
2023/02/04 09:31:53;;;;;;;7.85;5.85;;;;;;;4.55;65.16;99829.70;1778546;80;21212;-82
2023/02/04 09:34:59;;;;;;;10.38;8.23;;;;;;;4.14;63.86;99827.81;1778854;80;21212;-82
2023/02/04 09:38:04;;;;;;;10.93;7.53;;;;;;;3.83;66.09;99829.86;1777894;80;21227;-78
2023/02/04 09:41:15;;;;;;;9.43;7.35;;;;;;;3.80;66.47;99829.64;1778719;80;21161;-80
2023/02/04 09:44:21;;;;;;;;;;;;;;;3.81;66.25;99831.38;1781549;80;21166;-79
2023/02/04 09:47:28;;;;;;;10.30;7.80;;;;;;;3.69;66.91;99831.16;1777487;80;20186;-78
2023/02/04 09:50:34;;;;;;;8.58;6.83;;;;;;;3.67;67.34;99834.52;1777938;80;21197;-83
2023/02/04 09:53:40;;;;;;;10.15;7.65;;;;;;;3.57;67.16;99833.64;1777440;79;21177;-78
2023/02/04 09:56:47;;;;;;;11.20;9.08;;;;;;;3.36;67.39;99831.10;1778487;80;21196;-78
2023/02/04 09:59:56;;;;;;;10.72;8.45;;;;;;;3.31;68.25;99832.87;1777400;80;21232;-84
2023/02/04 10:03:06;;;;;;;10.38;8.18;;;;;;;3.33;67.89;99836.78;1777411;80;21193;-81
2023/02/04 10:06:11;;;;;;;;;;;;;;;3.23;67.89;99838.12;1780961;80;21176;-84
2023/02/04 10:09:19;;;;;;;9.35;6.87;;;;;;;3.21;68.16;99835.23;1757097;80;20219;-84
2023/02/04 10:12:26;;;;;;;9.50;6.78;;;;;;;3.21;68.29;99837.42;1778412;79;21235;-84
2023/02/04 10:15:31;;;;;;;9.28;6.85;;;;;;;3.31;67.35;99831.52;1778831;80;21195;-78
2023/02/04 10:18:39;;;;;;;7.58;6.45;;;;;;;3.28;66.59;99831.80;1777486;80;21239;-82
2023/02/04 10:21:45;;;;;;;8.33;6.08;;;;;;;3.52;65.44;99835.42;1778883;80;21173;-78
2023/02/04 10:24:52;;;;;;;7.55;5.72;;;;;;;3.22;65.79;99829.66;1769597;80;21201;-78
2023/02/04 10:28:07;;;;;;;8.25;5.92;;;;;;;3.35;65.37;99821.29;1768892;80;21193;-82
2023/02/04 10:31:36;;;;;;;6.80;5.72;;;;;;;3.27;66.28;99815.23;1769299;81;22149;-83
2023/02/04 10:34:44;;;;;;;7.50;6.45;;;;;;;3.14;66.99;99824.60;1770408;81;21168;-80
2023/02/04 10:37:51;;;;;;;7.17;6.17;;;;;;;3.15;67.69;99824.45;1769210;81;21718;-78
2023/02/04 10:41:11;;;;;;;8.25;5.90;;;;;;;3.31;67.48;99827.47;1769503;81;21185;-82
2023/02/04 10:44:22;;;;;;;6.72;5.35;;;;;;;3.28;67.83;99829.09;1770494;81;21149;-83
2023/02/04 10:47:23;;;;;;;6.75;5.25;;;;;;;3.18;67.59;99833.64;1769845;81;21200;-79
2023/02/04 10:50:25;;;;;;;7.45;4.97;;;;;;;3.04;68.06;99836.75;1770225;81;21193;-81
2023/02/04 10:56:48;;;;;;;6.00;5.33;;;;;;;2.81;68.69;99855.89;1770560;80;21226;-82
2023/02/04 10:59:58;;;;;;;7.42;5.40;;;;;;;2.81;69.03;99857.24;1770572;81;21156;-82
2023/02/04 11:03:07;;;;;;;11.12;6.37;;;;;;;2.75;69.15;99863.20;1770516;81;21223;-82
2023/02/04 11:06:17;;;;;;;;;;;;;;;2.53;69.82;99861.55;1773525;81;21208;-83
2023/02/04 11:09:24;;;;;;;8.88;6.62;;;;;;;2.45;69.81;99864.09;1770953;81;20582;-83
2023/02/04 11:12:50;;;;;;;11.95;7.60;;;;;;;2.34;69.51;99863.31;1770063;81;21794;-83
2023/02/04 11:15:58;;;;;;;7.42;6.10;;;;;;;2.26;70.36;99868.91;1771025;81;21196;-84
2023/02/04 11:19:06;;;;;;;9.25;5.85;;;;;;;2.21;70.58;99872.50;1768966;81;21198;-83
2023/02/04 11:22:29;;;;;;;7.97;5.92;;;;;;;2.13;71.51;99880.89;1770072;81;21221;-83
2023/02/04 11:25:43;;;;;;;5.37;4.50;;;;;;;1.97;72.37;99884.04;1778811;80;21181;-84
2023/02/04 11:29:08;;;;;;;6.85;4.80;;;;;;;2.13;71.11;99888.49;1782931;80;21200;-79
2023/02/04 11:32:41;;;;;;;7.87;4.90;;;;;;;2.05;70.83;99886.45;1783384;80;21204;-84
2023/02/04 11:35:48;;;;;;;8.38;4.90;;;;;;;1.96;71.72;99886.38;1779246;80;21155;-78
2023/02/04 11:38:55;;;;;;;5.72;4.30;;;;;;;2.07;71.29;99888.15;1738385;80;21231;-80
2023/02/04 11:42:00;;;;;;;5.85;4.37;;;;;;;2.09;71.14;99887.05;1779046;80;21705;-84
2023/02/04 11:45:11;;;;;;;5.72;5.05;;;;;;;2.05;71.12;99886.94;1779291;80;21799;-84
2023/02/04 11:48:26;;;;;;;4.78;3.98;;;;;;;1.86;71.66;99894.91;1778175;80;21670;-80
2023/02/04 11:51:39;;;;;;;5.20;4.70;;;;;;;1.87;72.06;99900.16;1778852;80;21157;-78
2023/02/04 11:54:45;;;;;;;4.28;3.87;;;;;;;2.02;71.65;99896.17;1777809;80;21769;-82
2023/02/04 11:57:51;;;;;;;6.03;4.08;;;;;;;2.07;71.40;99896.24;1778313;80;21835;-83
2023/02/04 12:00:57;;;;;;;4.40;3.98;;;;;;;2.16;71.47;99900.34;1779482;80;21706;-79
2023/02/04 12:04:12;;;;;;;5.47;4.45;;;;;;;2.21;71.13;99906.70;1756878;79;21195;-83
2023/02/04 12:07:19;;;;;;;5.30;4.80;;;;;;;2.14;71.14;99910.44;1778577;80;21252;-80
2023/02/04 12:10:31;;;;;;;4.83;3.98;;;;;;;1.72;72.32;99913.11;1779230;80;21706;-80
2023/02/04 12:13:39;;;;;;;4.35;3.67;;;;;;;1.67;72.74;99915.34;1777867;80;21212;-83
2023/02/04 12:16:57;;;;;;;6.40;4.35;;;;;;;1.68;72.99;99923.78;1778979;80;21224;-83
2023/02/04 12:20:03;;;;;;;4.60;4.08;;;;;;;1.75;72.89;99926.84;1779162;79;21168;-79
2023/02/04 12:23:09;;;;;;;6.30;3.50;;;;;;;1.75;72.83;99925.48;1778190;80;21161;-83
2023/02/04 12:26:16;;;;;;;4.03;3.60;;;;;;;1.71;72.70;99931.63;1773072;80;21202;-78
2023/02/04 12:29:21;;;;;;;6.65;3.98;;;;;;;1.81;72.32;99924.11;1771078;81;21681;-83
2023/02/04 12:32:27;;;;;;;4.92;4.08;;;;;;;1.84;72.22;99926.55;1770129;81;22093;-83
2023/02/04 12:35:34;;;;;;;4.87;4.28;;;;;;;1.81;71.74;99921.41;1808055;79;21137;-79
2023/02/04 12:38:40;;;;;;;4.83;4.25;;;;;;;1.85;72.18;99918.83;1807251;79;21220;-78
2023/02/04 12:41:46;;;;;;;4.55;3.75;;;;;;;1.86;72.53;99912.44;1807969;79;21666;-79
2023/02/04 12:44:52;;;;;;;4.25;3.62;;;;;;;1.88;72.55;99918.05;1807946;79;21188;-79
2023/02/04 12:47:58;;;;;;;5.42;3.98;;;;;;;1.89;73.30;99920.28;1807119;79;21169;-84
2023/02/04 12:51:04;;;;;;;4.22;3.42;;;;;;;2.08;73.26;99916.36;1807756;79;21153;-80
2023/02/04 12:54:11;;;;;;;4.42;3.77;;;;;;;2.30;72.70;99916.20;1807110;79;21153;-79
2023/02/04 12:57:18;;;;;;;4.05;3.65;;;;;;;2.43;72.54;99918.70;1807622;79;21196;-79
2023/02/04 13:00:26;;;;;;;4.85;3.75;;;;;;;2.32;72.91;99916.09;1808181;79;21152;-84
2023/02/04 13:03:34;;;;;;;4.75;3.98;;;;;;;2.40;72.85;99926.20;1805754;79;21228;-84
2023/02/04 13:06:39;;;;;;;4.67;3.77;;;;;;;2.45;72.61;99925.33;1802779;79;21197;-79
2023/02/04 13:09:45;;;;;;;4.20;3.75;;;;;;;2.35;72.35;99927.09;1803607;79;21244;-80
2023/02/04 13:12:51;;;;;;;4.42;3.85;;;;;;;2.23;72.61;99924.48;1801848;79;21192;-79
2023/02/04 13:15:58;;;;;;;5.78;4.30;;;;;;;2.15;72.89;99925.63;1801982;79;21251;-80
2023/02/04 13:18:57;;;;;;;5.28;3.67;;;;;;;2.12;72.78;99923.22;1803744;79;21157;-84
2023/02/04 13:21:50;;;;;;;6.60;4.75;;;;;;;2.08;72.51;99924.95;1803420;79;21533;-80
2023/02/04 13:24:36;;;;;;;5.78;4.75;;;;;;;2.08;72.42;99924.95;1802866;79;21856;-80
2023/02/04 13:27:30;;;;;;;5.70;4.45;;;;;;;2.07;72.29;99933.55;1806124;79;21717;-79
2023/02/04 13:30:36;;;;;;;6.45;4.58;;;;;;;2.11;71.82;99933.63;1809375;79;21153;-79
2023/02/04 13:33:42;;;;;;;5.58;4.97;;;;;;;2.07;72.15;99942.99;1808028;79;21165;-79
2023/02/04 13:36:48;;;;;;;5.42;4.37;;;;;;;2.05;71.98;99942.25;1809262;79;21637;-84
2023/02/04 13:39:54;;;;;;;8.98;5.22;;;;;;;1.87;72.48;99948.70;1808647;79;21169;-84
2023/02/04 13:43:01;;;;;;;13.20;8.88;;;;;;;1.96;72.10;99953.32;1808215;79;21773;-80
2023/02/04 13:46:10;;;;;;;7.08;5.50;;;;;;;2.01;71.87;99956.98;1809332;79;21140;-83
2023/02/04 13:49:16;;;;;;;5.97;5.10;;;;;;;1.96;72.32;99960.06;1807750;79;21705;-80
2023/02/04 13:52:22;;;;;;;7.62;5.85;;;;;;;1.96;72.65;99966.81;1807743;79;21196;-79
2023/02/04 13:55:27;;;;;;;7.10;5.45;;;;;;;1.87;72.83;99970.78;1808593;79;21231;-84
2023/02/04 13:58:33;;;;;;;10.18;6.85;;;;;;;1.84;73.32;99973.26;1807874;79;21690;-80
2023/02/04 14:01:40;;;;;;;8.23;5.25;;;;;;;1.83;73.39;99972.02;1809259;79;21737;-79
2023/02/04 14:04:46;;;;;;;5.85;4.85;;;;;;;1.88;73.32;99971.98;1809087;79;21177;-80
2023/02/04 14:07:52;;;;;;;5.37;4.50;;;;;;;1.84;73.30;99976.45;1808458;79;21251;-85
2023/02/04 14:10:58;;;;;;;7.78;4.78;;;;;;;1.59;74.04;99977.13;1808927;79;21181;-84
2023/02/04 14:14:03;;;;;;;6.67;5.35;;;;;;;1.41;74.95;99974.13;1808372;79;21188;-84
2023/02/04 14:17:09;;;;;;;7.05;5.40;;;;;;;1.50;74.73;99980.08;1808877;79;21200;-84
2023/02/04 14:20:15;;;;;;;6.10;5.40;;;;;;;1.51;74.63;99978.27;1809264;79;21748;-79
2023/02/04 14:23:22;;;;;;;5.17;4.37;;;;;;;1.44;74.87;99976.55;1808086;79;21188;-79
2023/02/04 14:26:28;;;;;;;6.30;4.85;;;;;;;1.47;75.08;99978.16;1809369;79;21782;-79
2023/02/04 14:29:35;;;;;;;5.42;4.67;;;;;;;1.47;75.28;99976.31;1801036;79;21706;-79
2023/02/04 14:32:41;;;;;;;6.05;4.55;;;;;;;1.47;75.17;99976.31;1803051;79;21197;-84
2023/02/04 14:35:47;;;;;;;8.13;5.03;;;;;;;1.42;75.30;99981.23;1803728;79;21161;-83
2023/02/04 14:38:53;;;;;;;5.78;4.42;;;;;;;1.39;75.16;99984.16;1803696;79;21200;-79
2023/02/04 14:41:59;;;;;;;6.08;4.97;;;;;;;1.20;75.62;99980.77;1802121;79;21168;-79
2023/02/04 14:45:07;;;;;;;5.28;4.62;;;;;;;1.15;75.96;99978.94;1802360;79;21193;-84
2023/02/04 14:48:14;;;;;;;6.22;4.65;;;;;;;1.05;76.61;99983.86;1802617;79;21189;-85
2023/02/04 14:51:20;;;;;;;6.35;4.65;;;;;;;1.13;76.84;99981.38;1803689;79;21149;-80
2023/02/04 14:54:26;;;;;;;6.60;5.15;;;;;;;1.11;77.02;99982.86;1803185;79;21169;-85
2023/02/04 14:57:32;;;;;;;6.55;5.08;;;;;;;1.14;77.12;99984.46;1802195;79;21217;-85
2023/02/04 15:00:38;;;;;;;8.50;6.22;;;;;;;1.18;77.05;99981.40;1802206;79;21161;-79